Map Display - EGPF to LEGE
(last flight recorded 21-03-2019, 21:48 - Christopher Manlow)

Aircraft Weights    Units : Maximums
Passengers :   124  
Cargo : kg 3,800 kg
Suggested Fuel Load : kg 15,682 kg
 
     
 
Dry Operating : 27,448 kg    
Total Payload : 0 kg 15,643 kg
 
Take Off : 39,465 kg 58,105 kg
 
Expected Landing : 31,865 kg 46,720 kg

Andrew Siddall,  B73Q ,  G-BFVA,  .

Route Distance Previous
Flights
Average
Duration
Average
Fuel Flow
Average
Fuel Use
EGPF - Glasgow
LEGE - Girona, Spain
885 nm 2 02:24 3,155 kg/h 7,600 kg

Current weather :-
2019/03/22 12:06
TAF EGPF 221057Z 2212/2312 20015KT 9999 SCT018
BECMG 2212/2214 26012KT
TEMPO 2212/2214 21018G30KT 8000 -RA BKN010 PROB30
TEMPO 2212/2214 4000 RA BKN008
TEMPO 2215/2221 27018G28KT PROB40
TEMPO 2215/2306 6000 SHRA BKN012
2019/03/22 12:27
TAF LEGE 221100Z 2212/2312 05010KT CAVOK TX22/2214Z TN02/2306Z
BECMG 2218/2220 35006KT

Back to Virtual Airline